Tug Reinauer Twins — WDF8591 — position and weather

sailwx.info

Track history (hours):
 
Tides and Currents Weather Stations Pressure Air Temp Water Temp Dewpoint Dewpoint Depression Visibility Wind Speed Wind Dir Waves Ship Positions

Tug Reinauer Twins

Owner: Reinauer Transportation Co., LLC, Staten Island, NY. More information available from US FCC via Universal Licensing System and Coast Guard Vessel Documentation Center.

Last reported at 2017-Dec-11 16:58 UTC. Time now 2017-Dec-12 15:44 UTC.
Position N 40°40' W 074°02'.

Length 130 m; draft 5.1 m.

Type: . MMSI: 367496470.

Date/timePositionNaut miles runAvg speedWind from/ knotsBaromVisibWave heightAir tempDewpointWater temp
2017-Dec-11 16:58N 40°40' W 074°02'0 0.1
2017-Dec-11 16:28N 40°40' W 074°02'0 0.0
2017-Dec-11 15:58N 40°40' W 074°02'0 0.0
2017-Dec-11 15:28N 40°40' W 074°02'0 0.0
2017-Dec-11 14:58N 40°40' W 074°02'0 0.0
2017-Dec-11 14:28N 40°40' W 074°02'0 0.0
2017-Dec-11 13:58N 40°40' W 074°02'0 0.0
2017-Dec-11 13:28N 40°40' W 074°02'0 0.0
2017-Dec-11 12:58N 40°40' W 074°02'0 0.0
2017-Dec-11 12:28N 40°40' W 074°02'0 0.0
2017-Dec-11 11:59N 40°40' W 074°02'0 0.0
2017-Dec-11 11:28N 40°40' W 074°02'0 0.2
2017-Dec-11 10:58N 40°40' W 074°02'0 0.1
2017-Dec-11 10:28N 40°40' W 074°02'0 0.0
2017-Dec-11 09:58N 40°40' W 074°02'0 0.1
2017-Dec-11 09:28N 40°40' W 074°02'0 0.0
2017-Dec-11 08:58N 40°40' W 074°02'0 0.0
2017-Dec-11 08:28N 40°40' W 074°02'0 0.0
2017-Dec-11 07:58N 40°40' W 074°02'0 0.0
2017-Dec-11 07:28N 40°40' W 074°02'0 0.0
2017-Dec-11 06:58N 40°40' W 074°02'0 0.0
2017-Dec-11 06:28N 40°40' W 074°02'0 0.0
2017-Dec-11 05:58N 40°40' W 074°02'0 0.2
2017-Dec-11 05:28N 40°40' W 074°02'0 0.1
2017-Dec-11 04:58N 40°40' W 074°02'0 0.0
2017-Dec-11 04:28N 40°40' W 074°02'0 0.0
2017-Dec-11 03:58N 40°40' W 074°02'0 0.0
2017-Dec-11 03:28N 40°40' W 074°02'0 0.0
2017-Dec-11 02:58N 40°40' W 074°02'0 0.0
2017-Dec-11 02:28N 40°40' W 074°02'0 0.0
2017-Dec-11 01:58N 40°40' W 074°02'0 0.0
2017-Dec-11 01:28N 40°40' W 074°02'0 0.0
2017-Dec-11 00:58N 40°40' W 074°02'0 0.0
2017-Dec-11 00:28N 40°40' W 074°02'0 0.0
2017-Dec-10 23:58N 40°40' W 074°02'0 0.0
2017-Dec-10 23:28N 40°40' W 074°02'0 0.1
2017-Dec-10 22:58N 40°40' W 074°02'0 0.1
2017-Dec-10 22:28N 40°40' W 074°02'0 0.1
2017-Dec-10 21:58N 40°40' W 074°02'0 0.0
2017-Dec-10 21:28N 40°40' W 074°02'0 0.0
2017-Dec-10 20:58N 40°40' W 074°02'0 0.0
2017-Dec-10 20:28N 40°40' W 074°02'0 0.0
2017-Dec-10 19:58N 40°40' W 074°02'0 0.0
2017-Dec-10 19:28N 40°40' W 074°02'0 0.0
2017-Dec-10 18:58N 40°40' W 074°02'0 0.0
2017-Dec-10 18:28N 40°40' W 074°02'0 0.0
2017-Dec-10 17:58N 40°40' W 074°02'0 0.1
2017-Dec-10 17:28N 40°40' W 074°02'0 0.2
2017-Dec-10 16:58N 40°40' W 074°02'0 0.1
2017-Dec-10 16:28N 40°40' W 074°02'0 0.1
2017-Dec-10 15:58N 40°40' W 074°02'0 0.0
2017-Dec-10 15:28N 40°40' W 074°02'0 0.0
2017-Dec-10 14:58N 40°40' W 074°02'0 0.0
2017-Dec-10 14:28N 40°40' W 074°02'0 0.0
2017-Dec-10 13:58N 40°40' W 074°02'0 0.0
2017-Dec-10 13:28N 40°40' W 074°02'0 0.0
2017-Dec-10 12:58N 40°40' W 074°02'0 0.0
2017-Dec-10 12:28N 40°40' W 074°02'0 0.0
2017-Dec-10 11:58N 40°40' W 074°02'0 0.0
2017-Dec-10 11:28N 40°40' W 074°02'0 0.0
2017-Dec-10 11:01N 40°40' W 074°02'1 1.1
2017-Dec-10 10:30N 40°40' W 074°02'5 9.9
2017-Dec-10 10:00N 40°45' W 073°58'510.3
2017-Dec-10 09:31N 40°48' W 073°53'5 8.9
2017-Dec-10 08:58N 40°49' W 073°47'5 9.9
2017-Dec-10 08:31N 40°53' W 073°44'4510.1
2017-Dec-10 04:06N 41°06' W 072°47'1 9.7
2017-Dec-10 04:01N 41°06' W 072°46'5 9.7
2017-Dec-10 03:29N 41°07' W 072°40'4 9.4
2017-Dec-10 03:00N 41°08' W 072°34'5 9.2
2017-Dec-10 02:31N 41°10' W 072°28'4 8.6
2017-Dec-10 02:01N 41°11' W 072°23'4 7.9
2017-Dec-10 01:31N 41°12' W 072°18'4 7.6
2017-Dec-10 01:01N 41°14' W 072°13'43 8.0
2017-Dec-09 19:39N 41°31' W 071°21'3 9.4
2017-Dec-09 19:20N 41°34' W 071°22'2 6.5
2017-Dec-09 19:00N 41°35' W 071°24'0 0.5
2017-Dec-09 18:31N 41°35' W 071°24'0 0.0
2017-Dec-09 18:00N 41°35' W 071°24'0 0.0
2017-Dec-09 17:30N 41°35' W 071°24'0 0.0
2017-Dec-09 17:01N 41°35' W 071°24'2 3.9
2017-Dec-09 16:30N 41°35' W 071°22'40 9.5
2017-Dec-09 12:19N 41°14' W 072°07'413.6
2017-Dec-09 12:00N 41°12' W 072°12'713.4
2017-Dec-09 11:30N 41°11' W 072°21'612.8
2017-Dec-09 11:00N 41°09' W 072°29'612.3
2017-Dec-09 10:30N 41°07' W 072°37'611.8
2017-Dec-09 09:59N 41°06' W 072°45'4310.7
2017-Dec-09 05:59N 40°54' W 073°40'510.4
2017-Dec-09 05:28N 40°51' W 073°45'4 8.8
2017-Dec-09 05:00N 40°48' W 073°50'511.2
2017-Dec-09 04:30N 40°46' W 073°56'612.0
2017-Dec-09 04:00N 40°41' W 074°01'5 9.6
2017-Dec-09 03:30N 40°39' W 074°06'1 2.8
2017-Dec-09 03:00N 40°38' W 074°08'0 0.1
2017-Dec-09 02:30N 40°39' W 074°08'3 6.1
2017-Dec-09 02:00N 40°40' W 074°04'2 4.8
2017-Dec-09 01:31N 40°38' W 074°03'4 7.1
2017-Dec-09 00:59N 40°38' W 074°08'0 0.0
2017-Dec-09 00:27N 40°38' W 074°08'0 0.0
2017-Dec-09 00:00N 40°38' W 074°08'0 0.0
2017-Dec-08 23:30N 40°38' W 074°08'0 0.0
2017-Dec-08 22:55N 40°38' W 074°08'0 0.0
2017-Dec-08 22:30N 40°38' W 074°08'0 0.0
2017-Dec-08 22:01N 40°38' W 074°08'0 0.0
2017-Dec-08 21:30N 40°38' W 074°08'0 0.0
2017-Dec-08 20:57N 40°38' W 074°08'0 0.0
2017-Dec-08 20:30N 40°38' W 074°08'0 0.0
2017-Dec-08 19:54N 40°38' W 074°08'0 0.0
2017-Dec-08 19:30N 40°38' W 074°08'0 0.0
2017-Dec-08 19:00N 40°38' W 074°08'0 0.0
2017-Dec-08 18:30N 40°38' W 074°08'0 0.0
2017-Dec-08 17:45N 40°38' W 074°08'0 0.0
2017-Dec-08 17:21N 40°38' W 074°08'0 0.0
2017-Dec-08 16:42N 40°38' W 074°08'0 0.0
2017-Dec-08 16:30N 40°38' W 074°08'0 0.0
2017-Dec-08 16:00N 40°38' W 074°08'0 0.0
2017-Dec-08 15:30N 40°38' W 074°08'0 0.0
2017-Dec-08 15:00N 40°38' W 074°08'0 0.0
2017-Dec-08 14:30N 40°38' W 074°08'0 0.0
2017-Dec-08 14:00N 40°38' W 074°08'0 0.0
2017-Dec-08 13:27N 40°38' W 074°08'0 0.0
2017-Dec-08 13:00N 40°38' W 074°08'0 0.0
2017-Dec-08 12:30N 40°38' W 074°08'0 0.0
2017-Dec-08 12:00N 40°38' W 074°08'0 0.0
2017-Dec-08 11:30N 40°38' W 074°08'0 0.0
2017-Dec-08 11:00N 40°38' W 074°08'0 0.0
2017-Dec-08 10:24N 40°38' W 074°08'0 0.0
2017-Dec-08 10:00N 40°38' W 074°08'0 0.0
2017-Dec-08 09:30N 40°38' W 074°08'0 0.0
2017-Dec-08 08:54N 40°38' W 074°08'0 0.0
2017-Dec-08 08:30N 40°38' W 074°08'0 0.0
2017-Dec-08 08:00N 40°38' W 074°08'0 0.0
2017-Dec-08 07:30N 40°38' W 074°08'0 0.0
2017-Dec-08 06:57N 40°38' W 074°08'0 0.0
2017-Dec-08 06:27N 40°38' W 074°08'0 0.0
2017-Dec-08 06:00N 40°38' W 074°08'0 0.0
2017-Dec-08 05:09N 40°38' W 074°08'0 0.0
2017-Dec-08 05:00N 40°38' W 074°08'0 0.0
2017-Dec-08 04:24N 40°38' W 074°08'0 0.0
2017-Dec-08 03:57N 40°38' W 074°08'0 0.0
2017-Dec-08 03:30N 40°38' W 074°08'0 0.0
2017-Dec-08 03:00N 40°38' W 074°08'0 0.0
2017-Dec-08 02:27N 40°38' W 074°08'0 0.0
2017-Dec-08 02:00N 40°38' W 074°08'0 0.0
2017-Dec-08 01:30N 40°38' W 074°08'0 0.0
2017-Dec-08 00:59N 40°38' W 074°08'0 0.0
2017-Dec-08 00:29N 40°38' W 074°08'0 0.0
2017-Dec-07 23:59N 40°38' W 074°08'0 0.0
2017-Dec-07 23:05N 40°38' W 074°08'0 0.0
2017-Dec-07 22:59N 40°38' W 074°08'0 0.0
2017-Dec-07 22:29N 40°38' W 074°08'0 0.0
2017-Dec-07 21:47N 40°38' W 074°08'0 0.0
2017-Dec-07 21:23N 40°38' W 074°08'0 0.0
2017-Dec-07 20:59N 40°38' W 074°08'0 0.0
2017-Dec-07 20:29N 40°38' W 074°08'0 0.0
2017-Dec-07 19:53N 40°38' W 074°08'0 0.0
2017-Dec-07 19:23N 40°38' W 074°08'0 0.0
2017-Dec-07 18:56N 40°38' W 074°08'0 0.0
2017-Dec-07 18:26N 40°38' W 074°08'0 0.0
2017-Dec-07 17:59N 40°38' W 074°08'0 0.0
2017-Dec-07 17:08N 40°38' W 074°08'0 0.0
2017-Dec-07 16:59N 40°38' W 074°08'0 0.0
2017-Dec-07 16:20N 40°38' W 074°08'0 0.0
2017-Dec-07 15:53N 40°38' W 074°08'0 0.0
2017-Dec-07 15:29N 40°38' W 074°08'0 0.0
2017-Dec-07 14:56N 40°38' W 074°08'0 0.0
2017-Dec-07 14:14N 40°38' W 074°08'0 0.0
2017-Dec-07 13:59N 40°38' W 074°08'0 0.0
2017-Dec-07 13:29N 40°38' W 074°08'0 0.0
2017-Dec-07 12:50N 40°38' W 074°08'0 0.0
2017-Dec-07 12:29N 40°38' W 074°08'0 0.0
2017-Dec-07 11:53N 40°38' W 074°08'0 0.0
2017-Dec-07 11:29N 40°38' W 074°08'0 0.0
2017-Dec-07 10:59N 40°38' W 074°08'0 0.0
2017-Dec-07 10:26N 40°38' W 074°08'0 0.0
2017-Dec-07 09:59N 40°38' W 074°08'0 0.0
2017-Dec-07 09:23N 40°38' W 074°08'0 0.0
2017-Dec-07 08:59N 40°38' W 074°08'0 0.0
2017-Dec-07 08:29N 40°38' W 074°08'0 0.0
2017-Dec-07 07:56N 40°38' W 074°08'0 0.0
2017-Dec-07 07:26N 40°38' W 074°08'0 0.0
2017-Dec-07 06:56N 40°38' W 074°08'0 0.0
2017-Dec-07 06:29N 40°38' W 074°08'0 0.0
2017-Dec-07 05:59N 40°38' W 074°08'0 0.0
2017-Dec-07 05:29N 40°38' W 074°08'0 0.0
2017-Dec-07 04:53N 40°38' W 074°08'0 0.0
2017-Dec-07 04:17N 40°38' W 074°08'0 0.0
2017-Dec-07 03:59N 40°38' W 074°08'0 0.0
2017-Dec-07 03:29N 40°38' W 074°08'0 0.0
2017-Dec-07 02:59N 40°38' W 074°08'0 0.0
2017-Dec-07 02:23N 40°38' W 074°08'0 0.0
2017-Dec-07 01:59N 40°38' W 074°08'0 0.0
2017-Dec-07 01:29N 40°38' W 074°08'0 0.0
2017-Dec-07 00:50N 40°38' W 074°08'0 0.0
2017-Dec-07 00:26N 40°38' W 074°08'0 0.0
2017-Dec-06 23:50N 40°38' W 074°08'0 0.0
2017-Dec-06 23:14N 40°38' W 074°08'0 0.0
2017-Dec-06 22:56N 40°38' W 074°08'0 0.0
2017-Dec-06 22:23N 40°38' W 074°08'0 0.0
2017-Dec-06 21:56N 40°38' W 074°08'0 0.0
2017-Dec-06 21:11N 40°38' W 074°08'0 0.0
2017-Dec-06 20:56N 40°38' W 074°08'  
2017-Dec-04 10:08N 40°38' W 074°08'0 0.0
2017-Dec-04 09:59N 40°38' W 074°08'0 0.0
2017-Dec-04 09:29N 40°38' W 074°08'0 0.0
2017-Dec-04 08:59N 40°38' W 074°08'0 0.0
2017-Dec-04 08:29N 40°38' W 074°08'0 0.0
2017-Dec-04 07:59N 40°38' W 074°08'0 0.0
2017-Dec-04 07:29N 40°38' W 074°08'0 0.0
2017-Dec-04 06:59N 40°38' W 074°08'0 0.0
2017-Dec-04 06:29N 40°38' W 074°08'0 0.0
2017-Dec-04 05:59N 40°38' W 074°08'0 0.0
2017-Dec-04 05:29N 40°38' W 074°08'0 0.0
2017-Dec-04 04:59N 40°38' W 074°08'0 0.0
2017-Dec-04 04:23N 40°38' W 074°08'0 0.0
2017-Dec-04 03:59N 40°38' W 074°08'0 0.0
2017-Dec-04 03:20N 40°38' W 074°08'0 0.0
2017-Dec-04 02:59N 40°38' W 074°08'0 0.0
2017-Dec-04 02:29N 40°38' W 074°08'0 0.0
2017-Dec-04 01:59N 40°38' W 074°08'0 0.0
2017-Dec-04 01:29N 40°38' W 074°08'0 0.0
2017-Dec-04 00:56N 40°38' W 074°08'0 0.0
2017-Dec-04 00:29N 40°38' W 074°08'0 0.0
2017-Dec-03 23:59N 40°38' W 074°08'0 0.0
2017-Dec-03 23:29N 40°38' W 074°08'0 0.0
2017-Dec-03 22:44N 40°38' W 074°08'0 0.0
2017-Dec-03 22:17N 40°38' W 074°08'0 0.0
2017-Dec-03 21:59N 40°38' W 074°08'0 0.0
2017-Dec-03 21:29N 40°38' W 074°08'0 0.0
2017-Dec-03 20:56N 40°38' W 074°08'0 0.0
2017-Dec-03 20:29N 40°38' W 074°08'0 0.0
2017-Dec-03 19:59N 40°38' W 074°08'0 0.0
2017-Dec-03 19:29N 40°38' W 074°08'0 0.0
2017-Dec-03 18:44N 40°38' W 074°08'0 0.0
2017-Dec-03 18:20N 40°38' W 074°08'0 0.0
2017-Dec-03 17:59N 40°38' W 074°08'0 0.0
2017-Dec-03 17:29N 40°38' W 074°08'0 0.0
2017-Dec-03 16:56N 40°38' W 074°08'0 0.0
2017-Dec-03 16:26N 40°38' W 074°08'0 0.0
2017-Dec-03 15:56N 40°38' W 074°08'0 0.0
2017-Dec-03 15:29N 40°38' W 074°08'0 0.0
2017-Dec-03 14:59N 40°38' W 074°08'0 0.0
2017-Dec-03 14:20N 40°38' W 074°08'0 0.0
2017-Dec-03 13:59N 40°38' W 074°08'0 0.0
2017-Dec-03 13:26N 40°38' W 074°08'0 0.0
2017-Dec-03 12:56N 40°38' W 074°08'0 0.0
2017-Dec-03 12:26N 40°38' W 074°08'0 0.0
2017-Dec-03 12:00N 40°38' W 074°08'0 0.0
2017-Dec-03 11:30N 40°38' W 074°08'0 0.0
2017-Dec-03 10:57N 40°38' W 074°08'0 0.0
2017-Dec-03 10:30N 40°38' W 074°08'0 0.1
2017-Dec-03 10:00N 40°38' W 074°08'0 0.0
2017-Dec-03 09:30N 40°38' W 074°08'0 0.0
2017-Dec-03 09:00N 40°38' W 074°08'0 0.0
2017-Dec-03 08:19N 40°38' W 074°08'0 0.0
2017-Dec-03 07:54N 40°38' W 074°08'0 0.0
2017-Dec-03 07:30N 40°38' W 074°08'0 0.0
2017-Dec-03 07:00N 40°38' W 074°08'0 0.0
2017-Dec-03 06:30N 40°38' W 074°08'0 0.0
2017-Dec-03 06:00N 40°38' W 074°08'0 0.0
2017-Dec-03 05:30N 40°38' W 074°08'0 0.0
2017-Dec-03 05:00N 40°38' W 074°08'0 0.0
2017-Dec-03 04:30N 40°38' W 074°08'0 0.0
2017-Dec-03 04:00N 40°38' W 074°08'0 0.0
2017-Dec-03 03:30N 40°38' W 074°08'0 0.0
2017-Dec-03 03:00N 40°38' W 074°08'0 0.0
2017-Dec-03 02:30N 40°38' W 074°08'0 0.0
2017-Dec-03 01:54N 40°38' W 074°08'0 0.0
2017-Dec-03 01:30N 40°38' W 074°08'0 0.0
2017-Dec-03 01:00N 40°38' W 074°08'0 0.0
2017-Dec-03 00:30N 40°38' W 074°08'0 0.0
2017-Dec-03 00:00N 40°38' W 074°08'0 0.0
2017-Dec-02 23:30N 40°38' W 074°08'0 0.0
2017-Dec-02 23:00N 40°38' W 074°08'0 0.0
2017-Dec-02 22:30N 40°38' W 074°08'0 0.0
2017-Dec-02 22:00N 40°38' W 074°08'0 0.0
2017-Dec-02 21:24N 40°38' W 074°08'0 0.0
2017-Dec-02 21:00N 40°38' W 074°08'0 0.0
2017-Dec-02 20:30N 40°38' W 074°08'0 0.0
2017-Dec-02 19:57N 40°38' W 074°08'0 0.0
2017-Dec-02 19:30N 40°38' W 074°08'0 0.0
2017-Dec-02 19:00N 40°38' W 074°08'0 0.0
2017-Dec-02 18:30N 40°38' W 074°08'0 0.0
2017-Dec-02 18:00N 40°38' W 074°08'0 0.0
2017-Dec-02 17:27N 40°38' W 074°08'0 0.0
2017-Dec-02 16:57N 40°38' W 074°08'0 0.0
2017-Dec-02 16:30N 40°38' W 074°08'0 0.0
2017-Dec-02 16:00N 40°38' W 074°08'2 3.7
2017-Dec-02 15:31N 40°39' W 074°05'511.0
2017-Dec-02 15:00N 40°42' W 073°60'612.9
2017-Dec-02 14:30N 40°48' W 073°55'611.2
2017-Dec-02 14:00N 40°48' W 073°47'610.8
2017-Dec-02 13:29N 40°53' W 073°43'4311.4
2017-Dec-02 09:41N 41°05' W 072°48'211.4
2017-Dec-02 09:28N 41°06' W 072°45'511.4
2017-Dec-02 09:00N 41°07' W 072°38'611.3
2017-Dec-02 08:30N 41°08' W 072°31'510.7
2017-Dec-02 08:00N 41°10' W 072°24'5 9.8
2017-Dec-02 07:30N 41°11' W 072°18'5 9.6
2017-Dec-02 06:59N 41°12' W 072°11'92 8.4
2017-Dec-01 20:07N 42°07' W 070°33'110.6
2017-Dec-01 20:00N 42°08' W 070°34'510.7
2017-Dec-01 19:30N 42°13' W 070°38'510.7
2017-Dec-01 19:00N 42°17' W 070°42'510.8
2017-Dec-01 18:30N 42°21' W 070°47'510.4
2017-Dec-01 18:00N 42°23' W 070°53'510.7
2017-Dec-01 17:30N 42°20' W 070°60'4 7.2
2017-Dec-01 17:00N 42°23' W 071°03'  
Track history (hours):
 
Tides and Currents Weather Stations Pressure Air Temp Water Temp Dewpoint Dewpoint Depression Visibility Wind Speed Wind Dir Waves Ship Positions

Tug Reinauer Twins

Owner: Reinauer Transportation Co., LLC, Staten Island, NY. More information available from US FCC via Universal Licensing System and Coast Guard Vessel Documentation Center.

Last reported at 2017-Dec-11 16:58 UTC. Time now 2017-Dec-12 15:44 UTC.
Position N 40°40' W 074°02'.

Length 130 m; draft 5.1 m.

Type: . MMSI: 367496470.

Date/timePositionNaut miles runAvg speedWind from/ knotsBaromVisibWave heightAir tempDewpointWater temp
2017-Dec-11 16:58N 40°40' W 074°02'0 0.1
2017-Dec-11 16:28N 40°40' W 074°02'0 0.0
2017-Dec-11 15:58N 40°40' W 074°02'0 0.0
2017-Dec-11 15:28N 40°40' W 074°02'0 0.0
2017-Dec-11 14:58N 40°40' W 074°02'0 0.0
2017-Dec-11 14:28N 40°40' W 074°02'0 0.0
2017-Dec-11 13:58N 40°40' W 074°02'0 0.0
2017-Dec-11 13:28N 40°40' W 074°02'0 0.0
2017-Dec-11 12:58N 40°40' W 074°02'0 0.0
2017-Dec-11 12:28N 40°40' W 074°02'0 0.0
2017-Dec-11 11:59N 40°40' W 074°02'0 0.0
2017-Dec-11 11:28N 40°40' W 074°02'0 0.2
2017-Dec-11 10:58N 40°40' W 074°02'0 0.1
2017-Dec-11 10:28N 40°40' W 074°02'0 0.0
2017-Dec-11 09:58N 40°40' W 074°02'0 0.1
2017-Dec-11 09:28N 40°40' W 074°02'0 0.0
2017-Dec-11 08:58N 40°40' W 074°02'0 0.0
2017-Dec-11 08:28N 40°40' W 074°02'0 0.0
2017-Dec-11 07:58N 40°40' W 074°02'0 0.0
2017-Dec-11 07:28N 40°40' W 074°02'0 0.0
2017-Dec-11 06:58N 40°40' W 074°02'0 0.0
2017-Dec-11 06:28N 40°40' W 074°02'0 0.0
2017-Dec-11 05:58N 40°40' W 074°02'0 0.2
2017-Dec-11 05:28N 40°40' W 074°02'0 0.1
2017-Dec-11 04:58N 40°40' W 074°02'0 0.0
2017-Dec-11 04:28N 40°40' W 074°02'0 0.0
2017-Dec-11 03:58N 40°40' W 074°02'0 0.0
2017-Dec-11 03:28N 40°40' W 074°02'0 0.0
2017-Dec-11 02:58N 40°40' W 074°02'0 0.0
2017-Dec-11 02:28N 40°40' W 074°02'0 0.0
2017-Dec-11 01:58N 40°40' W 074°02'0 0.0
2017-Dec-11 01:28N 40°40' W 074°02'0 0.0
2017-Dec-11 00:58N 40°40' W 074°02'0 0.0
2017-Dec-11 00:28N 40°40' W 074°02'0 0.0
2017-Dec-10 23:58N 40°40' W 074°02'0 0.0
2017-Dec-10 23:28N 40°40' W 074°02'0 0.1
2017-Dec-10 22:58N 40°40' W 074°02'0 0.1
2017-Dec-10 22:28N 40°40' W 074°02'0 0.1
2017-Dec-10 21:58N 40°40' W 074°02'0 0.0
2017-Dec-10 21:28N 40°40' W 074°02'0 0.0
2017-Dec-10 20:58N 40°40' W 074°02'0 0.0
2017-Dec-10 20:28N 40°40' W 074°02'0 0.0
2017-Dec-10 19:58N 40°40' W 074°02'0 0.0
2017-Dec-10 19:28N 40°40' W 074°02'0 0.0
2017-Dec-10 18:58N 40°40' W 074°02'0 0.0
2017-Dec-10 18:28N 40°40' W 074°02'0 0.0
2017-Dec-10 17:58N 40°40' W 074°02'0 0.1
2017-Dec-10 17:28N 40°40' W 074°02'0 0.2
2017-Dec-10 16:58N 40°40' W 074°02'0 0.1
2017-Dec-10 16:28N 40°40' W 074°02'0 0.1
2017-Dec-10 15:58N 40°40' W 074°02'0 0.0
2017-Dec-10 15:28N 40°40' W 074°02'0 0.0
2017-Dec-10 14:58N 40°40' W 074°02'0 0.0
2017-Dec-10 14:28N 40°40' W 074°02'0 0.0
2017-Dec-10 13:58N 40°40' W 074°02'0 0.0
2017-Dec-10 13:28N 40°40' W 074°02'0 0.0
2017-Dec-10 12:58N 40°40' W 074°02'0 0.0
2017-Dec-10 12:28N 40°40' W 074°02'0 0.0
2017-Dec-10 11:58N 40°40' W 074°02'0 0.0
2017-Dec-10 11:28N 40°40' W 074°02'0 0.0
2017-Dec-10 11:01N 40°40' W 074°02'1 1.1
2017-Dec-10 10:30N 40°40' W 074°02'5 9.9
2017-Dec-10 10:00N 40°45' W 073°58'510.3
2017-Dec-10 09:31N 40°48' W 073°53'5 8.9
2017-Dec-10 08:58N 40°49' W 073°47'5 9.9
2017-Dec-10 08:31N 40°53' W 073°44'4510.1
2017-Dec-10 04:06N 41°06' W 072°47'1 9.7
2017-Dec-10 04:01N 41°06' W 072°46'5 9.7
2017-Dec-10 03:29N 41°07' W 072°40'4 9.4
2017-Dec-10 03:00N 41°08' W 072°34'5 9.2
2017-Dec-10 02:31N 41°10' W 072°28'4 8.6
2017-Dec-10 02:01N 41°11' W 072°23'4 7.9
2017-Dec-10 01:31N 41°12' W 072°18'4 7.6
2017-Dec-10 01:01N 41°14' W 072°13'43 8.0
2017-Dec-09 19:39N 41°31' W 071°21'3 9.4
2017-Dec-09 19:20N 41°34' W 071°22'2 6.5
2017-Dec-09 19:00N 41°35' W 071°24'0 0.5
2017-Dec-09 18:31N 41°35' W 071°24'0 0.0
2017-Dec-09 18:00N 41°35' W 071°24'0 0.0
2017-Dec-09 17:30N 41°35' W 071°24'0 0.0
2017-Dec-09 17:01N 41°35' W 071°24'2 3.9
2017-Dec-09 16:30N 41°35' W 071°22'40 9.5
2017-Dec-09 12:19N 41°14' W 072°07'413.6
2017-Dec-09 12:00N 41°12' W 072°12'713.4
2017-Dec-09 11:30N 41°11' W 072°21'612.8
2017-Dec-09 11:00N 41°09' W 072°29'612.3
2017-Dec-09 10:30N 41°07' W 072°37'611.8
2017-Dec-09 09:59N 41°06' W 072°45'4310.7
2017-Dec-09 05:59N 40°54' W 073°40'510.4
2017-Dec-09 05:28N 40°51' W 073°45'4 8.8
2017-Dec-09 05:00N 40°48' W 073°50'511.2
2017-Dec-09 04:30N 40°46' W 073°56'612.0
2017-Dec-09 04:00N 40°41' W 074°01'5 9.6
2017-Dec-09 03:30N 40°39' W 074°06'1 2.8
2017-Dec-09 03:00N 40°38' W 074°08'0 0.1
2017-Dec-09 02:30N 40°39' W 074°08'3 6.1
2017-Dec-09 02:00N 40°40' W 074°04'2 4.8
2017-Dec-09 01:31N 40°38' W 074°03'4 7.1
2017-Dec-09 00:59N 40°38' W 074°08'0 0.0
2017-Dec-09 00:27N 40°38' W 074°08'0 0.0
2017-Dec-09 00:00N 40°38' W 074°08'0 0.0
2017-Dec-08 23:30N 40°38' W 074°08'0 0.0
2017-Dec-08 22:55N 40°38' W 074°08'0 0.0
2017-Dec-08 22:30N 40°38' W 074°08'0 0.0
2017-Dec-08 22:01N 40°38' W 074°08'0 0.0
2017-Dec-08 21:30N 40°38' W 074°08'0 0.0
2017-Dec-08 20:57N 40°38' W 074°08'0 0.0
2017-Dec-08 20:30N 40°38' W 074°08'0 0.0
2017-Dec-08 19:54N 40°38' W 074°08'0 0.0
2017-Dec-08 19:30N 40°38' W 074°08'0 0.0
2017-Dec-08 19:00N 40°38' W 074°08'0 0.0
2017-Dec-08 18:30N 40°38' W 074°08'0 0.0
2017-Dec-08 17:45N 40°38' W 074°08'0 0.0
2017-Dec-08 17:21N 40°38' W 074°08'0 0.0
2017-Dec-08 16:42N 40°38' W 074°08'0 0.0
2017-Dec-08 16:30N 40°38' W 074°08'0 0.0
2017-Dec-08 16:00N 40°38' W 074°08'0 0.0
2017-Dec-08 15:30N 40°38' W 074°08'0 0.0
2017-Dec-08 15:00N 40°38' W 074°08'0 0.0
2017-Dec-08 14:30N 40°38' W 074°08'0 0.0
2017-Dec-08 14:00N 40°38' W 074°08'0 0.0
2017-Dec-08 13:27N 40°38' W 074°08'0 0.0
2017-Dec-08 13:00N 40°38' W 074°08'0 0.0
2017-Dec-08 12:30N 40°38' W 074°08'0 0.0
2017-Dec-08 12:00N 40°38' W 074°08'0 0.0
2017-Dec-08 11:30N 40°38' W 074°08'0 0.0
2017-Dec-08 11:00N 40°38' W 074°08'0 0.0
2017-Dec-08 10:24N 40°38' W 074°08'0 0.0
2017-Dec-08 10:00N 40°38' W 074°08'0 0.0
2017-Dec-08 09:30N 40°38' W 074°08'0 0.0
2017-Dec-08 08:54N 40°38' W 074°08'0 0.0
2017-Dec-08 08:30N 40°38' W 074°08'0 0.0
2017-Dec-08 08:00N 40°38' W 074°08'0 0.0
2017-Dec-08 07:30N 40°38' W 074°08'0 0.0
2017-Dec-08 06:57N 40°38' W 074°08'0 0.0
2017-Dec-08 06:27N 40°38' W 074°08'0 0.0
2017-Dec-08 06:00N 40°38' W 074°08'0 0.0
2017-Dec-08 05:09N 40°38' W 074°08'0 0.0
2017-Dec-08 05:00N 40°38' W 074°08'0 0.0
2017-Dec-08 04:24N 40°38' W 074°08'0 0.0
2017-Dec-08 03:57N 40°38' W 074°08'0 0.0
2017-Dec-08 03:30N 40°38' W 074°08'0 0.0
2017-Dec-08 03:00N 40°38' W 074°08'0 0.0
2017-Dec-08 02:27N 40°38' W 074°08'0 0.0
2017-Dec-08 02:00N 40°38' W 074°08'0 0.0
2017-Dec-08 01:30N 40°38' W 074°08'0 0.0
2017-Dec-08 00:59N 40°38' W 074°08'0 0.0
2017-Dec-08 00:29N 40°38' W 074°08'0 0.0
2017-Dec-07 23:59N 40°38' W 074°08'0 0.0
2017-Dec-07 23:05N 40°38' W 074°08'0 0.0
2017-Dec-07 22:59N 40°38' W 074°08'0 0.0
2017-Dec-07 22:29N 40°38' W 074°08'0 0.0
2017-Dec-07 21:47N 40°38' W 074°08'0 0.0
2017-Dec-07 21:23N 40°38' W 074°08'0 0.0
2017-Dec-07 20:59N 40°38' W 074°08'0 0.0
2017-Dec-07 20:29N 40°38' W 074°08'0 0.0
2017-Dec-07 19:53N 40°38' W 074°08'0 0.0
2017-Dec-07 19:23N 40°38' W 074°08'0 0.0
2017-Dec-07 18:56N 40°38' W 074°08'0 0.0
2017-Dec-07 18:26N 40°38' W 074°08'0 0.0
2017-Dec-07 17:59N 40°38' W 074°08'0 0.0
2017-Dec-07 17:08N 40°38' W 074°08'0 0.0
2017-Dec-07 16:59N 40°38' W 074°08'0 0.0
2017-Dec-07 16:20N 40°38' W 074°08'0 0.0
2017-Dec-07 15:53N 40°38' W 074°08'0 0.0
2017-Dec-07 15:29N 40°38' W 074°08'0 0.0
2017-Dec-07 14:56N 40°38' W 074°08'0 0.0
2017-Dec-07 14:14N 40°38' W 074°08'0 0.0
2017-Dec-07 13:59N 40°38' W 074°08'0 0.0
2017-Dec-07 13:29N 40°38' W 074°08'0 0.0
2017-Dec-07 12:50N 40°38' W 074°08'0 0.0
2017-Dec-07 12:29N 40°38' W 074°08'0 0.0
2017-Dec-07 11:53N 40°38' W 074°08'0 0.0
2017-Dec-07 11:29N 40°38' W 074°08'0 0.0
2017-Dec-07 10:59N 40°38' W 074°08'0 0.0
2017-Dec-07 10:26N 40°38' W 074°08'0 0.0
2017-Dec-07 09:59N 40°38' W 074°08'0 0.0
2017-Dec-07 09:23N 40°38' W 074°08'0 0.0
2017-Dec-07 08:59N 40°38' W 074°08'0 0.0
2017-Dec-07 08:29N 40°38' W 074°08'0 0.0
2017-Dec-07 07:56N 40°38' W 074°08'0 0.0
2017-Dec-07 07:26N 40°38' W 074°08'0 0.0
2017-Dec-07 06:56N 40°38' W 074°08'0 0.0
2017-Dec-07 06:29N 40°38' W 074°08'0 0.0
2017-Dec-07 05:59N 40°38' W 074°08'0 0.0
2017-Dec-07 05:29N 40°38' W 074°08'0 0.0
2017-Dec-07 04:53N 40°38' W 074°08'0 0.0
2017-Dec-07 04:17N 40°38' W 074°08'0 0.0
2017-Dec-07 03:59N 40°38' W 074°08'0 0.0
2017-Dec-07 03:29N 40°38' W 074°08'0 0.0
2017-Dec-07 02:59N 40°38' W 074°08'0 0.0
2017-Dec-07 02:23N 40°38' W 074°08'0 0.0
2017-Dec-07 01:59N 40°38' W 074°08'0 0.0
2017-Dec-07 01:29N 40°38' W 074°08'0 0.0
2017-Dec-07 00:50N 40°38' W 074°08'0 0.0
2017-Dec-07 00:26N 40°38' W 074°08'0 0.0
2017-Dec-06 23:50N 40°38' W 074°08'0 0.0
2017-Dec-06 23:14N 40°38' W 074°08'0 0.0
2017-Dec-06 22:56N 40°38' W 074°08'0 0.0
2017-Dec-06 22:23N 40°38' W 074°08'0 0.0
2017-Dec-06 21:56N 40°38' W 074°08'0 0.0
2017-Dec-06 21:11N 40°38' W 074°08'0 0.0
2017-Dec-06 20:56N 40°38' W 074°08'  
2017-Dec-04 10:08N 40°38' W 074°08'0 0.0
2017-Dec-04 09:59N 40°38' W 074°08'0 0.0
2017-Dec-04 09:29N 40°38' W 074°08'0 0.0
2017-Dec-04 08:59N 40°38' W 074°08'0 0.0
2017-Dec-04 08:29N 40°38' W 074°08'0 0.0
2017-Dec-04 07:59N 40°38' W 074°08'0 0.0
2017-Dec-04 07:29N 40°38' W 074°08'0 0.0
2017-Dec-04 06:59N 40°38' W 074°08'0 0.0
2017-Dec-04 06:29N 40°38' W 074°08'0 0.0
2017-Dec-04 05:59N 40°38' W 074°08'0 0.0
2017-Dec-04 05:29N 40°38' W 074°08'0 0.0
2017-Dec-04 04:59N 40°38' W 074°08'0 0.0
2017-Dec-04 04:23N 40°38' W 074°08'0 0.0
2017-Dec-04 03:59N 40°38' W 074°08'0 0.0
2017-Dec-04 03:20N 40°38' W 074°08'0 0.0
2017-Dec-04 02:59N 40°38' W 074°08'0 0.0
2017-Dec-04 02:29N 40°38' W 074°08'0 0.0
2017-Dec-04 01:59N 40°38' W 074°08'0 0.0
2017-Dec-04 01:29N 40°38' W 074°08'0 0.0
2017-Dec-04 00:56N 40°38' W 074°08'0 0.0
2017-Dec-04 00:29N 40°38' W 074°08'0 0.0
2017-Dec-03 23:59N 40°38' W 074°08'0 0.0
2017-Dec-03 23:29N 40°38' W 074°08'0 0.0
2017-Dec-03 22:44N 40°38' W 074°08'0 0.0
2017-Dec-03 22:17N 40°38' W 074°08'0 0.0
2017-Dec-03 21:59N 40°38' W 074°08'0 0.0
2017-Dec-03 21:29N 40°38' W 074°08'0 0.0
2017-Dec-03 20:56N 40°38' W 074°08'0 0.0
2017-Dec-03 20:29N 40°38' W 074°08'0 0.0
2017-Dec-03 19:59N 40°38' W 074°08'0 0.0
2017-Dec-03 19:29N 40°38' W 074°08'0 0.0
2017-Dec-03 18:44N 40°38' W 074°08'0 0.0
2017-Dec-03 18:20N 40°38' W 074°08'0 0.0
2017-Dec-03 17:59N 40°38' W 074°08'0 0.0
2017-Dec-03 17:29N 40°38' W 074°08'0 0.0
2017-Dec-03 16:56N 40°38' W 074°08'0 0.0
2017-Dec-03 16:26N 40°38' W 074°08'0 0.0
2017-Dec-03 15:56N 40°38' W 074°08'0 0.0
2017-Dec-03 15:29N 40°38' W 074°08'0 0.0
2017-Dec-03 14:59N 40°38' W 074°08'0 0.0
2017-Dec-03 14:20N 40°38' W 074°08'0 0.0
2017-Dec-03 13:59N 40°38' W 074°08'0 0.0
2017-Dec-03 13:26N 40°38' W 074°08'0 0.0
2017-Dec-03 12:56N 40°38' W 074°08'0 0.0
2017-Dec-03 12:26N 40°38' W 074°08'0 0.0
2017-Dec-03 12:00N 40°38' W 074°08'0 0.0
2017-Dec-03 11:30N 40°38' W 074°08'0 0.0
2017-Dec-03 10:57N 40°38' W 074°08'0 0.0
2017-Dec-03 10:30N 40°38' W 074°08'0 0.1
2017-Dec-03 10:00N 40°38' W 074°08'0 0.0
2017-Dec-03 09:30N 40°38' W 074°08'0 0.0
2017-Dec-03 09:00N 40°38' W 074°08'0 0.0
2017-Dec-03 08:19N 40°38' W 074°08'0 0.0
2017-Dec-03 07:54N 40°38' W 074°08'0 0.0
2017-Dec-03 07:30N 40°38' W 074°08'0 0.0
2017-Dec-03 07:00N 40°38' W 074°08'0 0.0
2017-Dec-03 06:30N 40°38' W 074°08'0 0.0
2017-Dec-03 06:00N 40°38' W 074°08'0 0.0
2017-Dec-03 05:30N 40°38' W 074°08'0 0.0
2017-Dec-03 05:00N 40°38' W 074°08'0 0.0
2017-Dec-03 04:30N 40°38' W 074°08'0 0.0
2017-Dec-03 04:00N 40°38' W 074°08'0 0.0
2017-Dec-03 03:30N 40°38' W 074°08'0 0.0
2017-Dec-03 03:00N 40°38' W 074°08'0 0.0
2017-Dec-03 02:30N 40°38' W 074°08'0 0.0
2017-Dec-03 01:54N 40°38' W 074°08'0 0.0
2017-Dec-03 01:30N 40°38' W 074°08'0 0.0
2017-Dec-03 01:00N 40°38' W 074°08'0 0.0
2017-Dec-03 00:30N 40°38' W 074°08'0 0.0
2017-Dec-03 00:00N 40°38' W 074°08'0 0.0
2017-Dec-02 23:30N 40°38' W 074°08'0 0.0
2017-Dec-02 23:00N 40°38' W 074°08'0 0.0
2017-Dec-02 22:30N 40°38' W 074°08'0 0.0
2017-Dec-02 22:00N 40°38' W 074°08'0 0.0
2017-Dec-02 21:24N 40°38' W 074°08'0 0.0
2017-Dec-02 21:00N 40°38' W 074°08'0 0.0
2017-Dec-02 20:30N 40°38' W 074°08'0 0.0
2017-Dec-02 19:57N 40°38' W 074°08'0 0.0
2017-Dec-02 19:30N 40°38' W 074°08'0 0.0
2017-Dec-02 19:00N 40°38' W 074°08'0 0.0
2017-Dec-02 18:30N 40°38' W 074°08'0 0.0
2017-Dec-02 18:00N 40°38' W 074°08'0 0.0
2017-Dec-02 17:27N 40°38' W 074°08'0 0.0
2017-Dec-02 16:57N 40°38' W 074°08'0 0.0
2017-Dec-02 16:30N 40°38' W 074°08'0 0.0
2017-Dec-02 16:00N 40°38' W 074°08'2 3.7
2017-Dec-02 15:31N 40°39' W 074°05'511.0
2017-Dec-02 15:00N 40°42' W 073°60'612.9
2017-Dec-02 14:30N 40°48' W 073°55'611.2
2017-Dec-02 14:00N 40°48' W 073°47'610.8
2017-Dec-02 13:29N 40°53' W 073°43'4311.4
2017-Dec-02 09:41N 41°05' W 072°48'211.4
2017-Dec-02 09:28N 41°06' W 072°45'511.4
2017-Dec-02 09:00N 41°07' W 072°38'611.3
2017-Dec-02 08:30N 41°08' W 072°31'510.7
2017-Dec-02 08:00N 41°10' W 072°24'5 9.8
2017-Dec-02 07:30N 41°11' W 072°18'5 9.6
2017-Dec-02 06:59N 41°12' W 072°11'92 8.4
2017-Dec-01 20:07N 42°07' W 070°33'110.6
2017-Dec-01 20:00N 42°08' W 070°34'510.7
2017-Dec-01 19:30N 42°13' W 070°38'510.7
2017-Dec-01 19:00N 42°17' W 070°42'510.8
2017-Dec-01 18:30N 42°21' W 070°47'510.4
2017-Dec-01 18:00N 42°23' W 070°53'510.7
2017-Dec-01 17:30N 42°20' W 070°60'4 7.2
2017-Dec-01 17:00N 42°23' W 071°03'  

Dump ship's entire track history